Time;durP1;ratioP1;P1;durP2;ratioP2;P2;SDS_P1;SDS_P2;PMS_P1;PMS_P2;Temp;Humidity;BMP_temperature;BMP_pressure;BME280_temperature;BME280_humidity;BME280_pressure;Samples;Min_cycle;Max_cycle;Signal;HPM_P1;HPM_P2
2022/12/03 00:02:22;;;;;;;49.95;23.70;;;;;;;-1.62;91.01;102007.59;7402142;19;20018;-68
2022/12/03 00:04:50;;;;;;;49.17;23.27;;;;;;;-1.63;91.22;102013.59;7399393;19;20070;-70
2022/12/03 00:07:19;;;;;;;49.05;22.50;;;;;;;-1.64;91.49;102009.25;7399299;19;20027;-70
2022/12/03 00:09:47;;;;;;;46.50;23.00;;;;;;;-1.62;91.61;102005.03;7401040;19;20035;-70
2022/12/03 00:12:16;;;;;;;50.90;23.38;;;;;;;-1.61;91.21;102008.50;7401475;19;20027;-69
2022/12/03 00:14:47;;;;;;;51.25;24.83;;;;;;;-1.63;90.96;101998.13;7398995;19;20081;-69
2022/12/03 00:17:15;;;;;;;53.85;23.08;;;;;;;-1.63;90.70;102003.28;7402165;19;20031;-69
2022/12/03 00:19:50;;;;;;;52.97;23.83;;;;;;;-1.64;90.91;101999.81;7398503;19;20039;-69
2022/12/03 00:22:19;;;;;;;49.58;23.92;;;;;;;-1.65;91.00;102003.19;7401009;19;20078;-70
2022/12/03 00:24:47;;;;;;;53.05;25.17;;;;;;;-1.64;91.41;102007.53;7398590;19;20039;-69
2022/12/03 00:27:16;;;;;;;51.15;22.80;;;;;;;-1.64;91.12;102006.66;7400969;19;20018;-70
2022/12/03 00:29:47;;;;;;;52.22;23.02;;;;;;;-1.63;91.19;102005.88;7398440;19;20026;-69
2022/12/03 00:32:15;;;;;;;52.70;23.13;;;;;;;-1.64;91.47;101999.81;7400887;19;20018;-69
2022/12/03 00:34:44;;;;;;;56.35;26.08;;;;;;;-1.62;91.70;102005.03;7398897;19;20019;-70
2022/12/03 00:37:12;;;;;;;53.30;25.92;;;;;;;-1.60;91.44;101998.28;7400734;19;20519;-68
2022/12/03 00:39:47;;;;;;;49.35;25.10;;;;;;;-1.61;91.42;101999.06;7400966;19;20031;-68
2022/12/03 00:42:15;;;;;;;52.70;23.45;;;;;;;-1.59;91.00;101994.91;7397642;19;20100;-67
2022/12/03 00:44:46;;;;;;;56.03;26.20;;;;;;;-1.64;90.69;101999.81;7398176;19;20014;-68
2022/12/03 00:47:15;;;;;;;54.92;25.58;;;;;;;-1.60;91.02;101994.84;7400976;19;20039;-70
2022/12/03 00:49:43;;;;;;;61.78;27.77;;;;;;;-1.67;90.60;101989.38;7400195;19;20474;-69
2022/12/03 00:52:12;;;;;;;50.58;23.08;;;;;;;-1.63;90.10;102003.28;7400634;19;20026;-69
2022/12/03 00:54:40;;;;;;;49.85;24.55;;;;;;;-1.64;90.72;101997.25;7398038;19;20031;-69
2022/12/03 00:57:09;;;;;;;52.80;25.55;;;;;;;-1.65;91.10;101994.59;7400354;19;20019;-69
2022/12/03 00:59:37;;;;;;;59.35;26.02;;;;;;;-1.66;91.36;101998.84;7397881;19;20093;-68
2022/12/03 01:02:08;;;;;;;55.97;25.67;;;;;;;-1.61;91.48;101995.63;7397415;19;20418;-69
2022/12/03 01:04:37;;;;;;;62.45;27.60;;;;;;;-1.60;91.31;101997.41;7397993;19;20018;-69
2022/12/03 01:07:05;;;;;;;53.65;25.05;;;;;;;-1.60;91.26;101998.28;7400107;19;20010;-69
2022/12/03 01:09:34;;;;;;;54.60;26.10;;;;;;;-1.59;91.02;102004.28;7399830;19;20022;-69
2022/12/03 01:12:02;;;;;;;56.95;27.73;;;;;;;-1.59;90.85;102002.63;7399478;19;20375;-71
2022/12/03 01:14:31;;;;;;;62.25;28.55;;;;;;;-1.60;91.01;101993.13;7397283;19;20035;-69
2022/12/03 01:16:59;;;;;;;55.30;25.90;;;;;;;-1.59;91.31;101997.47;7399759;19;20039;-69
2022/12/03 01:19:30;;;;;;;57.83;25.63;;;;;;;-1.60;90.96;102003.41;7399313;19;20021;-70
2022/12/03 01:21:59;;;;;;;60.78;27.10;;;;;;;-1.61;90.67;102004.22;7397483;19;20010;-70
2022/12/03 01:24:27;;;;;;;53.85;25.88;;;;;;;-1.64;90.77;101998.94;7397137;19;20023;-69
2022/12/03 01:26:56;;;;;;;60.15;27.13;;;;;;;-1.63;91.32;101998.13;7399467;19;20026;-70
2022/12/03 01:29:25;;;;;;;56.05;26.50;;;;;;;-1.61;91.30;101999.06;7398873;19;20382;-70
2022/12/03 01:34:36;;;;;;;57.25;26.52;;;;;;;-1.61;91.50;101993.94;7397762;19;20018;-70
2022/12/03 01:37:05;;;;;;;60.58;28.00;;;;;;;-1.61;91.72;101993.06;7399509;19;20019;-70
2022/12/03 01:39:33;;;;;;;64.75;27.92;;;;;;;-1.59;91.48;101994.91;7396834;19;20015;-70
2022/12/03 01:42:02;;;;;;;61.22;27.73;;;;;;;-1.60;90.66;101993.13;7396497;19;20018;-69
2022/12/03 01:44:47;;;;;;;59.28;28.40;;;;;;;-1.60;91.48;101993.13;7396294;19;20014;-69
2022/12/03 01:47:18;;;;;;;59.88;26.52;;;;;;;-1.60;91.64;101998.28;7399084;19;20031;-70
2022/12/03 01:49:52;;;;;;;66.25;30.17;;;;;;;-1.59;91.68;101994.91;7398964;19;20070;-69
2022/12/03 01:52:23;;;;;;;66.13;30.15;;;;;;;-1.59;90.77;101996.56;7398979;19;20070;-69
2022/12/03 01:54:55;;;;;;;65.78;29.58;;;;;;;-1.60;90.83;101989.69;7396362;19;20027;-70
2022/12/03 01:57:28;;;;;;;63.65;30.98;;;;;;;-1.61;90.78;101985.34;7398198;19;20388;-70
2022/12/03 01:59:59;;;;;;;68.65;29.50;;;;;;;-1.63;90.39;101985.28;7397989;19;20027;-69
2022/12/03 02:02:30;;;;;;;64.35;30.30;;;;;;;-1.65;90.98;101982.59;7398649;19;20026;-69
2022/12/03 02:05:01;;;;;;;67.22;29.05;;;;;;;-1.66;90.55;101985.97;7398579;19;20037;-70
2022/12/03 02:07:31;;;;;;;69.95;30.52;;;;;;;-1.67;90.49;101985.91;7397779;19;20023;-70
2022/12/03 02:10:03;;;;;;;59.55;27.27;;;;;;;-1.67;91.35;101991.06;7397744;19;20035;-69
2022/12/03 02:12:35;;;;;;;67.55;30.67;;;;;;;-1.70;90.74;101983.19;7398581;19;20015;-67
2022/12/03 02:15:04;;;;;;;69.18;30.98;;;;;;;-1.68;91.17;101990.19;7397460;19;20023;-68
2022/12/03 02:17:33;;;;;;;69.97;31.23;;;;;;;-1.67;91.27;101991.97;7397753;19;20026;-68
2022/12/03 02:20:07;;;;;;;71.43;29.95;;;;;;;-1.67;90.96;101991.97;7397607;19;20074;-68
2022/12/03 02:22:44;;;;;;;65.15;29.75;;;;;;;-1.67;91.56;101997.09;7397909;19;20019;-68
2022/12/03 02:25:22;;;;;;;67.28;29.20;;;;;;;-1.68;91.14;101990.19;7397865;19;20067;-69
2022/12/03 02:27:51;;;;;;;70.85;32.50;;;;;;;-1.64;91.39;101988.66;7395842;19;20078;-68
2022/12/03 02:30:22;;;;;;;69.28;31.48;;;;;;;-1.63;91.79;101987.84;7396829;19;20082;-68
2022/12/03 02:32:52;;;;;;;69.50;30.85;;;;;;;-1.62;91.75;101981.88;7395730;19;20039;-68
2022/12/03 02:35:22;;;;;;;70.72;32.55;;;;;;;-1.62;90.78;101984.44;7397094;19;20094;-68
2022/12/03 02:37:54;;;;;;;79.03;32.03;;;;;;;-1.65;91.00;101985.16;7395663;19;20098;-68
2022/12/03 02:40:28;;;;;;;74.18;31.65;;;;;;;-1.65;90.65;101990.31;7397434;19;20019;-68
2022/12/03 02:42:57;;;;;;;68.63;30.60;;;;;;;-1.67;90.95;101986.81;7396402;19;20027;-68
2022/12/03 02:45:29;;;;;;;66.93;31.30;;;;;;;-1.68;90.94;101989.28;7394793;19;20015;-68
2022/12/03 02:48:00;;;;;;;63.08;30.08;;;;;;;-1.69;90.89;101991.00;7396423;19;20035;-68
2022/12/03 02:50:34;;;;;;;68.25;31.48;;;;;;;-1.72;90.86;101983.13;7396264;19;20484;-68
2022/12/03 02:53:04;;;;;;;69.85;31.58;;;;;;;-1.68;91.03;101989.28;7395840;19;20078;-69
2022/12/03 02:55:37;;;;;;;71.85;31.20;;;;;;;-1.68;90.86;101994.44;7396825;19;20022;-68
2022/12/03 02:58:06;;;;;;;66.38;30.38;;;;;;;-1.69;90.52;101977.25;7395189;19;20032;-69
2022/12/03 03:00:36;;;;;;;70.32;31.08;;;;;;;-1.71;90.54;101982.31;7396000;19;20081;-68
2022/12/03 03:03:05;;;;;;;71.18;30.60;;;;;;;-1.71;90.96;101989.16;7395875;19;20022;-68
2022/12/03 03:05:36;;;;;;;74.88;33.78;;;;;;;-1.71;90.92;101986.56;7395802;19;20031;-69
2022/12/03 03:08:05;;;;;;;66.40;31.70;;;;;;;-1.72;90.86;101987.38;7396159;19;20392;-69
2022/12/03 03:10:38;;;;;;;70.68;32.38;;;;;;;-1.72;90.88;101975.41;7395264;19;20078;-68
2022/12/03 03:13:11;;;;;;;69.82;32.40;;;;;;;-1.73;90.48;101985.59;7394681;19;20036;-68
2022/12/03 03:15:40;;;;;;;74.15;32.97;;;;;;;-1.71;91.23;101987.44;7394303;19;20015;-68
2022/12/03 03:18:11;;;;;;;77.57;32.33;;;;;;;-1.71;91.32;101981.44;7395220;19;20018;-68
2022/12/03 03:20:39;;;;;;;71.20;32.22;;;;;;;-1.69;90.95;101977.25;7394152;19;20022;-68
2022/12/03 03:23:16;;;;;;;84.32;34.75;;;;;;;-1.70;91.25;101975.47;7395065;19;20045;-68
2022/12/03 03:25:51;;;;;;;74.07;33.25;;;;;;;-1.69;91.46;101978.13;7392990;19;20392;-68
2022/12/03 03:28:20;;;;;;;69.55;33.08;;;;;;;-1.68;91.14;101979.91;7395202;19;20086;-69
2022/12/03 03:30:49;;;;;;;71.82;33.28;;;;;;;-1.67;91.78;101973.03;7393606;19;20101;-68
2022/12/03 03:33:18;;;;;;;70.88;32.13;;;;;;;-1.66;91.70;101969.66;7394776;19;20022;-68
2022/12/03 03:35:48;;;;;;;68.80;31.70;;;;;;;-1.62;91.15;101968.13;7393624;19;20031;-68
2022/12/03 03:38:17;;;;;;;81.80;35.55;;;;;;;-1.63;90.93;101967.25;7395254;19;20019;-68
2022/12/03 03:40:50;;;;;;;70.80;32.88;;;;;;;-1.62;90.94;101970.69;7395133;19;20027;-68
2022/12/03 03:43:18;;;;;;;74.28;32.38;;;;;;;-1.63;90.52;101967.25;7393603;19;20513;-68
2022/12/03 03:45:47;;;;;;;75.68;33.80;;;;;;;-1.64;91.39;101963.78;7394982;19;20027;-68
2022/12/03 03:48:16;;;;;;;76.63;31.60;;;;;;;-1.64;91.39;101963.78;7395038;19;20026;-68
2022/12/03 03:50:46;;;;;;;70.70;34.85;;;;;;;-1.63;91.52;101962.13;7394556;19;20426;-68
2022/12/03 03:53:15;;;;;;;77.78;33.75;;;;;;;-1.62;91.67;101958.69;7393743;19;20031;-68
2022/12/03 03:55:44;;;;;;;73.75;32.78;;;;;;;-1.63;91.13;101954.38;7394699;19;20047;-68
2022/12/03 03:58:15;;;;;;;73.68;35.20;;;;;;;-1.62;90.93;101962.97;7392878;19;20082;-68
2022/12/03 04:00:45;;;;;;;76.13;35.40;;;;;;;-1.64;91.17;101955.19;7394914;19;20074;-68
2022/12/03 04:03:14;;;;;;;71.43;33.92;;;;;;;-1.67;91.46;101953.34;7393902;19;20022;-68
2022/12/03 04:05:43;;;;;;;82.53;34.05;;;;;;;-1.65;91.62;101956.00;7394490;19;20032;-68
2022/12/03 04:08:11;;;;;;;79.13;35.60;;;;;;;-1.63;92.02;101956.97;7392155;19;20514;-68
2022/12/03 04:13:23;;;;;;;78.15;36.72;;;;;;;-1.64;91.47;101952.63;7393619;19;20026;-68
2022/12/03 04:15:52;;;;;;;82.70;37.40;;;;;;;-1.65;91.53;101948.28;7391915;19;20423;-69
2022/12/03 04:23:42;;;;;;;78.90;36.33;;;;;;;-1.69;91.61;101939.53;7391093;19;20484;-68
2022/12/03 04:28:53;;;;;;;86.90;38.22;;;;;;;-1.71;90.95;101932.53;7394107;19;20011;-68
2022/12/03 04:36:44;;;;;;;82.78;38.60;;;;;;;-1.74;91.31;101938.44;7397679;19;20014;-68
2022/12/03 04:39:12;;;;;;;92.28;39.80;;;;;;;-1.75;91.66;101936.66;7398020;19;20462;-68
2022/12/03 04:41:41;;;;;;;79.28;37.58;;;;;;;-1.75;91.77;101936.66;7398238;19;20039;-68
2022/12/03 04:46:53;;;;;;;91.28;41.72;;;;;;;-1.76;91.86;101932.31;7401120;19;20382;-68
2022/12/03 04:49:21;;;;;;;92.30;41.92;;;;;;;-1.75;92.32;101933.22;7400414;19;20480;-68
2022/12/03 04:51:50;;;;;;;91.20;41.83;;;;;;;-1.75;92.11;101928.06;7398954;19;20086;-67
2022/12/03 04:54:18;;;;;;;92.35;40.10;;;;;;;-1.75;92.04;101931.50;7397898;19;20070;-67
2022/12/03 04:56:47;;;;;;;96.93;43.22;;;;;;;-1.75;92.15;101933.22;7397571;19;20481;-68
2022/12/03 04:59:18;;;;;;;94.25;40.70;;;;;;;-1.77;91.70;101933.13;7400202;19;20018;-67
2022/12/03 05:01:46;;;;;;;88.18;42.20;;;;;;;-1.77;92.23;101929.66;7400795;19;20035;-67
2022/12/03 05:04:16;;;;;;;85.75;40.65;;;;;;;-1.81;92.27;101929.53;7398496;19;20018;-68
2022/12/03 05:06:45;;;;;;;90.18;42.50;;;;;;;-1.81;92.01;101932.13;7400786;19;20042;-67
2022/12/03 05:09:14;;;;;;;92.88;42.45;;;;;;;-1.82;92.52;101924.28;7400343;19;20018;-68
2022/12/03 05:11:43;;;;;;;90.80;42.72;;;;;;;-1.82;92.72;101925.19;7399135;19;20082;-68
2022/12/03 05:14:12;;;;;;;92.32;42.20;;;;;;;-1.95;92.74;101897.09;7397869;19;20059;-67
2022/12/03 05:16:43;;;;;;;100.43;46.60;;;;;;;-1.82;92.83;101919.16;7399518;19;20027;-67
2022/12/03 05:19:12;;;;;;;92.50;42.60;;;;;;;-1.82;92.88;101920.06;7397928;19;20019;-68
2022/12/03 05:21:38;;;;;;;91.25;42.75;;;;;;;-1.83;93.12;101909.69;7399725;19;20090;-68
2022/12/03 05:24:07;;;;;;;112.72;51.03;;;;;;;-1.82;92.89;101914.00;7397208;19;20492;-68
2022/12/03 05:26:36;;;;;;;105.40;44.97;;;;;;;-1.82;93.15;101904.63;7399396;19;20094;-67
2022/12/03 05:29:04;;;;;;;104.10;45.25;;;;;;;-1.83;93.01;101915.72;7399409;19;20046;-67
2022/12/03 05:31:33;;;;;;;106.65;45.38;;;;;;;-1.83;92.81;101907.13;7398680;19;20018;-68
2022/12/03 05:34:04;;;;;;;106.68;45.28;;;;;;;-1.84;93.08;101913.94;7396475;19;20395;-68
2022/12/03 05:36:33;;;;;;;109.30;46.85;;;;;;;-1.84;93.31;101913.94;7397418;19;20038;-68
2022/12/03 05:39:01;;;;;;;107.95;46.15;;;;;;;-1.85;93.29;101913.88;7398834;19;20074;-68
2022/12/03 05:44:10;;;;;;;104.35;44.30;;;;;;;-1.86;93.42;101909.53;7397066;19;20359;-68
2022/12/03 05:46:39;;;;;;;98.97;45.83;;;;;;;-1.88;93.52;101908.59;7398391;19;20035;-68
2022/12/03 05:49:10;;;;;;;108.93;45.35;;;;;;;-1.88;93.30;101922.31;7396719;19;20014;-68
2022/12/03 05:51:38;;;;;;;106.60;46.78;;;;;;;-1.90;93.30;101911.06;7398267;19;20229;-68
2022/12/03 05:54:07;;;;;;;108.05;45.30;;;;;;;-1.90;93.29;101902.47;7395955;19;20018;-67
2022/12/03 05:56:35;;;;;;;112.63;47.55;;;;;;;-1.91;93.42;101908.44;7397967;19;20028;-68
2022/12/03 05:59:04;;;;;;;115.68;47.85;;;;;;;-1.93;93.42;101905.78;7396014;19;20014;-68
2022/12/03 06:01:33;;;;;;;107.60;46.58;;;;;;;-1.92;93.88;101907.56;7398340;19;20081;-68
2022/12/03 06:04:01;;;;;;;107.65;46.28;;;;;;;-1.92;93.82;101909.22;7397001;19;20014;-68
2022/12/03 06:06:32;;;;;;;108.90;48.30;;;;;;;-1.91;94.03;101909.31;7398099;19;20027;-68
2022/12/03 06:09:01;;;;;;;109.30;45.67;;;;;;;-1.91;94.21;101903.28;7396538;19;20032;-68
2022/12/03 06:11:32;;;;;;;103.55;45.92;;;;;;;-1.91;93.85;101904.16;7397364;19;20028;-68
2022/12/03 06:14:01;;;;;;;110.35;46.45;;;;;;;-1.91;93.69;101901.59;7396816;19;20022;-67
2022/12/03 06:16:29;;;;;;;100.50;43.88;;;;;;;-1.93;93.95;101905.78;7397832;19;20018;-67
2022/12/03 06:18:58;;;;;;;140.20;60.72;;;;;;;-1.92;93.91;101906.66;7397444;19;20018;-67
2022/12/03 06:21:26;;;;;;;116.38;46.25;;;;;;;-1.92;94.27;101912.72;7397705;19;20023;-67
2022/12/03 06:23:58;;;;;;;109.70;47.03;;;;;;;-1.92;94.31;101915.28;7396032;19;20014;-68
2022/12/03 06:26:28;;;;;;;104.90;45.92;;;;;;;-1.91;94.14;101905.84;7397899;19;20037;-68
2022/12/03 06:28:57;;;;;;;101.40;44.55;;;;;;;-1.91;94.46;101913.56;7397401;19;20018;-68
2022/12/03 06:31:26;;;;;;;108.60;44.22;;;;;;;-1.90;94.26;101920.50;7396782;19;20434;-68
2022/12/03 06:33:54;;;;;;;103.65;45.00;;;;;;;-1.90;94.34;101911.06;7396072;19;20026;-68
2022/12/03 06:36:23;;;;;;;105.85;45.30;;;;;;;-1.90;94.28;101911.06;7395347;19;20078;-67
2022/12/03 06:38:51;;;;;;;99.45;45.42;;;;;;;-1.91;94.09;101911.88;7397195;19;20027;-67
2022/12/03 06:41:22;;;;;;;104.82;47.33;;;;;;;-1.91;94.30;101917.00;7397010;19;20031;-68
2022/12/03 06:44:04;;;;;;;104.50;46.33;;;;;;;-1.91;94.40;101917.00;7394933;19;20015;-67
2022/12/03 06:46:32;;;;;;;102.63;44.85;;;;;;;-1.91;94.48;101914.44;7397180;19;20039;-66
2022/12/03 06:49:01;;;;;;;99.03;46.90;;;;;;;-1.90;94.81;101911.06;7394548;19;20518;-68
2022/12/03 06:51:29;;;;;;;108.57;49.42;;;;;;;-1.89;94.65;101915.41;7396438;19;20023;-67
2022/12/03 06:53:58;;;;;;;104.95;51.40;;;;;;;-1.89;94.67;101912.84;7394912;19;20481;-67
2022/12/03 06:56:29;;;;;;;103.50;47.10;;;;;;;-1.88;94.79;101914.59;7396174;19;20502;-67
2022/12/03 06:58:58;;;;;;;95.70;44.60;;;;;;;-1.89;94.97;101911.97;7395849;19;20418;-67
2022/12/03 07:01:26;;;;;;;104.80;46.15;;;;;;;-1.88;94.74;101913.75;7395906;19;20501;-67
2022/12/03 07:03:55;;;;;;;100.07;45.05;;;;;;;-1.89;94.97;101910.28;7395142;19;20032;-67
2022/12/03 07:06:23;;;;;;;102.70;47.00;;;;;;;-1.88;94.74;101914.59;7394016;19;20022;-67
2022/12/03 07:08:52;;;;;;;102.07;46.20;;;;;;;-1.88;94.90;101914.59;7394360;19;20043;-67
2022/12/03 07:11:39;;;;;;;103.75;45.83;;;;;;;-1.88;95.11;101906.88;7395642;19;20446;-67
2022/12/03 07:14:11;;;;;;;99.47;43.83;;;;;;;-1.87;94.69;101907.75;7394938;19;20019;-67
2022/12/03 07:16:42;;;;;;;105.47;46.40;;;;;;;-1.87;94.86;101916.38;7396261;19;20179;-68
2022/12/03 07:19:10;;;;;;;104.10;44.35;;;;;;;-1.87;94.90;101913.81;7396175;19;20018;-69
2022/12/03 07:21:39;;;;;;;94.60;42.75;;;;;;;-1.86;94.84;101917.25;7395618;19;20018;-68
2022/12/03 07:24:08;;;;;;;101.78;43.42;;;;;;;-1.88;94.54;101917.19;7393963;19;20551;-67
2022/12/03 07:26:36;;;;;;;97.22;44.03;;;;;;;-1.88;94.74;101913.75;7395534;19;20022;-67
2022/12/03 07:29:05;;;;;;;95.72;43.67;;;;;;;-1.89;94.92;101911.97;7395149;19;20481;-67
2022/12/03 07:31:36;;;;;;;104.80;45.08;;;;;;;-1.88;95.10;101914.59;7395311;19;20022;-67
2022/12/03 07:34:04;;;;;;;99.32;43.97;;;;;;;-1.87;94.82;101915.47;7394414;19;20023;-68
2022/12/03 07:36:33;;;;;;;103.90;46.88;;;;;;;-1.87;94.97;101915.47;7394923;19;20035;-68
2022/12/03 07:39:01;;;;;;;95.07;46.03;;;;;;;-1.86;95.15;101914.69;7395016;19;20021;-68
2022/12/03 07:41:30;;;;;;;104.35;48.00;;;;;;;-1.86;94.73;101913.00;7394627;19;20014;-68
2022/12/03 07:43:58;;;;;;;95.57;44.90;;;;;;;-1.85;94.83;101908.72;7393587;19;20014;-67
2022/12/03 07:46:27;;;;;;;94.88;46.00;;;;;;;-1.84;95.17;101906.22;7395027;19;20421;-68
2022/12/03 07:48:58;;;;;;;95.40;47.40;;;;;;;-1.83;95.05;101913.13;7393250;19;20022;-68
2022/12/03 07:51:26;;;;;;;89.40;43.15;;;;;;;-1.82;95.28;101904.63;7394534;19;20508;-68
2022/12/03 07:53:55;;;;;;;94.93;45.55;;;;;;;-1.81;94.84;101905.47;7392512;19;20039;-67
2022/12/03 07:56:23;;;;;;;97.47;44.80;;;;;;;-1.81;94.89;101908.06;7394719;19;20078;-66
2022/12/03 07:58:51;;;;;;;94.90;47.33;;;;;;;-1.80;95.09;101902.09;7394371;19;20031;-66
2022/12/03 08:01:20;;;;;;;94.00;45.92;;;;;;;-1.78;94.87;101902.16;7394462;19;20035;-68
2022/12/03 08:03:49;;;;;;;92.75;43.75;;;;;;;-1.78;94.90;101899.59;7392083;19;20015;-67
2022/12/03 08:06:20;;;;;;;96.57;43.75;;;;;;;-1.77;94.83;101901.38;7394524;19;20017;-68
2022/12/03 08:08:48;;;;;;;88.00;43.05;;;;;;;-1.76;94.88;101898.00;7394737;19;20036;-67
2022/12/03 08:11:17;;;;;;;91.30;44.58;;;;;;;-1.75;94.68;101886.91;7394907;19;20423;-67
2022/12/03 08:13:45;;;;;;;92.85;43.80;;;;;;;-1.76;94.65;101886.00;7399002;19;20418;-67
2022/12/03 08:16:18;;;;;;;94.60;43.58;;;;;;;-1.74;94.72;101886.97;7401685;19;20074;-67
2022/12/03 08:18:48;;;;;;;92.85;43.78;;;;;;;-1.72;94.56;101885.34;7399260;19;20014;-67
2022/12/03 08:21:22;;;;;;;93.93;44.13;;;;;;;-1.72;94.24;101884.44;7401100;19;20070;-68
2022/12/03 08:23:50;;;;;;;95.43;43.67;;;;;;;-1.72;94.50;101887.03;7399495;19;20544;-68
2022/12/03 08:26:23;;;;;;;92.07;45.50;;;;;;;-1.71;94.63;101889.66;7398253;19;20435;-67
2022/12/03 08:28:52;;;;;;;87.53;44.42;;;;;;;-1.72;94.28;101887.94;7398097;19;20014;-67
2022/12/03 08:31:22;;;;;;;95.68;45.28;;;;;;;-1.69;94.41;101885.47;7398372;19;20035;-67
2022/12/03 08:33:53;;;;;;;146.48;71.07;;;;;;;-1.68;94.89;101883.78;7397715;19;20014;-68
2022/12/03 08:36:26;;;;;;;120.65;53.50;;;;;;;-1.66;94.73;101883.03;7400708;19;20477;-66
2022/12/03 08:38:58;;;;;;;91.30;43.85;;;;;;;-1.62;94.90;101886.63;7400958;19;20427;-69
2022/12/03 08:44:26;;;;;;;90.90;45.20;;;;;;;-1.57;94.67;101881.72;7398496;19;20018;-67
2022/12/03 08:47:01;;;;;;;98.40;46.53;;;;;;;-1.55;94.93;101880.97;7398408;19;20090;-67
2022/12/03 08:49:30;;;;;;;97.32;46.42;;;;;;;-1.49;95.00;101881.25;7397498;19;20032;-67
2022/12/03 08:52:02;;;;;;;92.43;44.30;;;;;;;-1.49;95.00;101873.53;7397741;19;20035;-68
2022/12/03 08:54:31;;;;;;;94.88;44.10;;;;;;;-1.40;94.78;101882.47;7397351;19;20035;-66
2022/12/03 08:56:59;;;;;;;81.57;40.47;;;;;;;-1.37;94.58;101877.47;7397201;19;20423;-68
2022/12/03 08:59:31;;;;;;;91.18;43.75;;;;;;;-1.34;94.35;101882.75;7400955;19;20039;-69
2022/12/03 09:02:00;;;;;;;81.38;40.17;;;;;;;-1.34;93.83;101883.66;7400119;19;20018;-66
2022/12/03 09:04:33;;;;;;;88.22;43.30;;;;;;;-1.31;94.21;101877.75;7397321;19;20019;-67
2022/12/03 09:07:04;;;;;;;83.53;40.20;;;;;;;-1.30;94.15;101879.53;7399283;19;20032;-68
2022/12/03 09:09:33;;;;;;;83.30;41.05;;;;;;;-1.30;94.06;101874.38;7399224;19;20484;-68
2022/12/03 09:12:01;;;;;;;79.75;41.30;;;;;;;-1.28;94.41;101871.88;7399346;19;20434;-66
2022/12/03 09:14:30;;;;;;;82.95;40.40;;;;;;;-1.27;94.42;101868.50;7396747;19;20018;-67
2022/12/03 09:16:58;;;;;;;78.95;39.13;;;;;;;-1.25;94.03;101864.28;7397390;19;20015;-68
2022/12/03 09:19:29;;;;;;;84.82;40.55;;;;;;;-1.25;93.61;101867.75;7399755;19;20039;-68
2022/12/03 09:21:58;;;;;;;83.07;40.30;;;;;;;-1.25;93.35;101861.69;7397066;19;20497;-68
2022/12/03 09:24:29;;;;;;;85.57;40.75;;;;;;;-1.27;94.00;101856.47;7394329;19;20019;-67
2022/12/03 09:26:57;;;;;;;83.85;38.90;;;;;;;-1.26;93.96;101859.94;7395572;19;20505;-67
2022/12/03 09:29:26;;;;;;;88.10;39.33;;;;;;;-1.25;93.27;101861.69;7396441;19;20082;-68
2022/12/03 09:31:54;;;;;;;86.22;41.10;;;;;;;-1.26;93.39;101854.78;7398706;19;20085;-67
2022/12/03 09:34:23;;;;;;;85.93;39.65;;;;;;;-1.26;93.38;101854.78;7396882;19;20019;-68
2022/12/03 09:36:51;;;;;;;92.43;41.17;;;;;;;-1.25;93.40;101851.41;7399246;19;20026;-67
2022/12/03 09:39:20;;;;;;;84.80;38.45;;;;;;;-1.25;93.48;101852.28;7396737;19;20022;-68
2022/12/03 09:41:51;;;;;;;86.45;39.15;;;;;;;-1.26;93.23;101853.09;7397548;19;20035;-68
2022/12/03 09:44:20;;;;;;;83.28;41.28;;;;;;;-1.27;93.15;101853.91;7396513;19;20074;-67
2022/12/03 09:46:50;;;;;;;82.50;38.55;;;;;;;-1.26;93.63;101845.38;7398981;19;20442;-67
2022/12/03 09:49:20;;;;;;;81.72;38.70;;;;;;;-1.24;93.99;101851.50;7398514;19;20028;-67
2022/12/03 09:51:49;;;;;;;84.20;38.33;;;;;;;-1.22;93.47;101849.84;7398211;19;20018;-68
2022/12/03 09:54:24;;;;;;;86.38;40.45;;;;;;;-1.22;93.80;101846.41;7396205;19;20027;-68
2022/12/03 09:56:57;;;;;;;83.15;39.03;;;;;;;-1.19;93.71;101841.38;7396381;19;20015;-68
2022/12/03 09:59:29;;;;;;;85.25;38.28;;;;;;;-1.24;93.29;101833.47;7396787;19;20070;-68
2022/12/03 10:01:58;;;;;;;87.22;39.92;;;;;;;-1.19;93.38;101831.97;7398216;19;20028;-67
2022/12/03 10:04:26;;;;;;;85.68;38.70;;;;;;;-1.18;93.38;101833.69;7395813;19;20031;-68
2022/12/03 10:06:55;;;;;;;83.38;40.10;;;;;;;-1.17;93.59;101832.91;7398095;19;20018;-68
2022/12/03 10:09:29;;;;;;;81.10;38.65;;;;;;;-1.16;93.54;101829.50;7397572;19;20049;-69
2022/12/03 10:12:01;;;;;;;84.22;39.15;;;;;;;-1.14;92.95;101832.16;7398495;19;20022;-67
2022/12/03 10:14:30;;;;;;;87.75;38.22;;;;;;;-1.13;93.05;101833.03;7396019;19;20036;-67
2022/12/03 10:16:59;;;;;;;87.35;39.38;;;;;;;-1.15;93.06;101831.28;7395900;19;20018;-67
2022/12/03 10:19:34;;;;;;;81.35;37.75;;;;;;;-1.12;93.12;101835.69;7395733;19;20022;-67
2022/12/03 10:22:03;;;;;;;81.50;38.47;;;;;;;-1.11;93.09;101829.72;7396473;19;20484;-68
2022/12/03 10:24:33;;;;;;;80.35;38.15;;;;;;;-1.09;93.31;101833.22;7395646;19;20118;-69
2022/12/03 10:27:06;;;;;;;85.43;39.45;;;;;;;-1.07;93.96;101830.75;7395371;19;20023;-68
2022/12/03 10:29:37;;;;;;;83.68;39.08;;;;;;;-1.03;93.52;101822.31;7395129;19;20485;-68
2022/12/03 10:32:08;;;;;;;82.05;38.45;;;;;;;-1.02;93.61;101819.81;7396918;19;20078;-68
2022/12/03 10:34:38;;;;;;;90.30;41.10;;;;;;;-1.02;93.61;101811.22;7394483;19;20018;-69
2022/12/03 10:37:18;;;;;;;83.65;38.72;;;;;;;-0.96;92.99;101824.34;7397462;19;20023;-69
2022/12/03 10:39:59;;;;;;;76.30;38.35;;;;;;;-0.95;93.00;101817.50;7397613;19;20022;-70
2022/12/03 10:42:31;;;;;;;84.13;39.33;;;;;;;-0.95;93.00;101815.78;7394912;19;20014;-69
2022/12/03 10:45:10;;;;;;;80.65;38.22;;;;;;;-0.94;92.30;101817.56;7395678;19;20018;-70
2022/12/03 10:47:39;;;;;;;75.65;35.88;;;;;;;-0.95;91.98;101818.38;7397217;19;20029;-70
2022/12/03 10:50:17;;;;;;;75.00;37.03;;;;;;;-0.94;92.84;101817.56;7396311;19;20014;-71
2022/12/03 10:52:46;;;;;;;80.45;38.38;;;;;;;-0.94;92.24;101820.13;7394451;19;20014;-69
2022/12/03 10:55:16;;;;;;;72.80;34.53;;;;;;;-0.93;92.95;101829.63;7396098;19;20018;-69
2022/12/03 10:57:48;;;;;;;74.28;37.10;;;;;;;-0.94;92.44;101825.28;7396129;19;20027;-70
2022/12/03 11:00:19;;;;;;;76.18;36.90;;;;;;;-0.93;92.66;101824.47;7396388;19;20541;-69
2022/12/03 11:02:48;;;;;;;74.00;36.58;;;;;;;-0.93;92.37;101818.44;7395578;19;20517;-69
2022/12/03 11:05:18;;;;;;;70.00;33.83;;;;;;;-0.94;92.54;101817.56;7396156;19;20018;-69
2022/12/03 11:07:46;;;;;;;77.50;37.50;;;;;;;-0.93;92.26;101810.72;7394427;19;20086;-70
2022/12/03 11:10:17;;;;;;;72.07;35.63;;;;;;;-0.92;92.38;101815.94;7396223;19;20018;-73
2022/12/03 11:13:23;;;;;;;76.15;36.45;;;;;;;-0.89;92.78;101808.31;7393530;19;20070;-69
2022/12/03 11:15:51;;;;;;;79.40;36.80;;;;;;;-0.87;92.36;101803.25;7395816;19;20031;-67
2022/12/03 11:18:50;;;;;;;80.28;38.55;;;;;;;-0.84;92.41;101793.06;7396223;19;20041;-68
2022/12/03 11:21:18;;;;;;;75.93;36.13;;;;;;;-0.84;92.25;101799.09;7395829;19;20022;-68
2022/12/03 11:24:28;;;;;;;70.72;33.97;;;;;;;-0.84;92.32;101795.66;7394383;19;20379;-68
2022/12/03 11:27:21;;;;;;;72.75;35.35;;;;;;;-0.84;91.77;101793.06;7394350;19;20035;-69
2022/12/03 11:30:13;;;;;;;73.63;37.28;;;;;;;-0.83;92.15;101797.41;7394815;19;20019;-69
2022/12/03 11:33:05;;;;;;;71.60;33.38;;;;;;;-0.84;92.39;101788.78;7394083;19;20018;-67
2022/12/03 11:36:06;;;;;;;72.13;35.70;;;;;;;-0.85;92.76;101791.28;7395014;19;20495;-67
2022/12/03 11:38:51;;;;;;;67.50;32.13;;;;;;;-0.83;92.79;101789.69;7394802;19;20010;-68
2022/12/03 11:41:22;;;;;;;69.97;34.80;;;;;;;-0.82;92.90;101788.88;7393169;19;20011;-69
2022/12/03 11:44:29;;;;;;;68.00;33.15;;;;;;;-0.80;92.83;101794.09;7394517;19;20023;-67
2022/12/03 11:47:15;;;;;;;73.78;33.97;;;;;;;-0.80;92.22;101782.06;7397251;19;20010;-69
2022/12/03 11:49:49;;;;;;;62.38;31.83;;;;;;;-0.82;92.12;101784.59;7400312;19;20039;-68
2022/12/03 11:52:25;;;;;;;;;;;;;;;-0.81;91.73;101777.72;7403797;19;20019;-68
2022/12/03 11:54:59;;;;;;;70.57;33.40;;;;;;;-0.82;92.64;101774.28;7399388;19;19939;-68